Time;durP1;ratioP1;P1;durP2;ratioP2;P2;SDS_P1;SDS_P2;PMS_P1;PMS_P2;Temp;Humidity;BMP_temperature;BMP_pressure;BME280_temperature;BME280_humidity;BME280_pressure;Samples;Min_cycle;Max_cycle;Signal;HPM_P1;HPM_P2
2022/04/21 00:02:15;;;;;;;8.10;2.10;;;9.40;99.90;;;;;;4972671;28;20019;-88
2022/04/21 00:04:40;;;;;;;3.03;1.40;;;9.40;99.90;;;;;;4982224;28;20034;-89
2022/04/21 00:09:42;;;;;;;4.80;1.45;;;9.40;99.90;;;;;;4922060;23;20001;-77
2022/04/21 00:12:08;;;;;;;7.72;1.50;;;9.40;99.90;;;;;;4993194;28;20544;-77
2022/04/21 00:14:34;;;;;;;5.20;1.95;;;9.40;99.90;;;;;;4975018;28;20019;-77
2022/04/21 00:16:59;;;;;;;5.22;1.90;;;9.40;99.90;;;;;;4977304;28;20049;-77
2022/04/21 00:19:25;;;;;;;4.68;1.75;;;9.40;99.90;;;;;;4993194;28;20370;-77
2022/04/21 00:24:36;;;;;;;3.40;1.50;;;9.50;99.90;;;;;;4992715;28;20108;-77
2022/04/21 00:27:02;;;;;;;3.92;1.70;;;9.50;99.90;;;;;;4978048;28;20027;-78
2022/04/21 00:29:28;;;;;;;7.60;1.77;;;9.50;99.90;;;;;;4973663;28;20035;-77
2022/04/21 00:31:53;;;;;;;7.43;1.70;;;9.50;99.90;;;;;;4973845;28;20031;-77
2022/04/21 00:34:19;;;;;;;2.67;1.35;;;9.50;99.90;;;;;;4973969;28;20027;-76
2022/04/21 00:36:45;;;;;;;3.38;1.40;;;9.50;99.90;;;;;;4973339;28;20074;-77
2022/04/21 00:39:11;;;;;;;3.65;1.45;;;9.50;99.90;;;;;;4973340;28;20031;-77
2022/04/21 00:41:37;;;;;;;2.83;1.52;;;9.50;99.90;;;;;;4974657;28;20390;-77
2022/04/21 00:44:03;;;;;;;2.47;1.40;;;9.50;99.90;;;;;;4989454;28;20026;-77
2022/04/21 00:46:29;;;;;;;4.93;1.40;;;9.40;99.90;;;;;;4993619;28;20026;-77
2022/04/21 00:48:56;;;;;;;5.05;1.50;;;9.40;99.90;;;;;;4993718;28;20117;-77
2022/04/21 00:51:23;;;;;;;2.33;1.30;;;9.40;99.90;;;;;;4977196;28;20034;-77
2022/04/21 00:53:49;;;;;;;3.22;1.67;;;9.40;99.90;;;;;;4973451;28;20046;-77
2022/04/21 00:56:15;;;;;;;7.60;1.40;;;9.40;99.90;;;;;;4973665;28;20058;-77
2022/04/21 00:58:43;;;;;;;2.35;1.35;;;9.50;99.90;;;;;;4974129;28;20114;-77
2022/04/21 01:02:46;;;;;;;5.78;1.67;;;9.40;99.90;;;;;;4974356;28;20059;-77
2022/04/21 01:03:56;;;;;;;2.50;1.25;;;9.40;99.90;;;;;;4974141;28;20698;-77
2022/04/21 01:06:23;;;;;;;5.22;1.25;;;9.40;99.90;;;;;;4957169;28;20035;-77
2022/04/21 01:08:49;;;;;;;4.30;1.30;;;9.40;99.90;;;;;;4955340;28;20110;-77
2022/04/21 01:11:16;;;;;;;4.80;1.48;;;9.50;99.90;;;;;;4983766;28;20042;-77
2022/04/21 01:13:46;;;;;;;3.72;1.42;;;9.40;99.90;;;;;;4993349;28;20064;-77
2022/04/21 01:16:11;;;;;;;4.28;1.10;;;9.50;99.90;;;;;;4993462;28;20371;-77
2022/04/21 01:18:37;;;;;;;3.80;1.33;;;9.40;99.90;;;;;;4993605;28;20033;-77
2022/04/21 01:21:03;;;;;;;3.25;1.38;;;9.40;99.90;;;;;;4993478;28;20026;-77
2022/04/21 01:23:28;;;;;;;2.85;1.17;;;9.40;99.90;;;;;;4984275;28;20027;-77
2022/04/21 01:25:55;;;;;;;3.35;1.33;;;9.40;99.90;;;;;;4974061;28;20041;-77
2022/04/21 01:28:21;;;;;;;3.60;1.30;;;9.30;99.90;;;;;;4973806;28;20114;-78
2022/04/21 01:30:47;;;;;;;3.45;1.45;;;9.30;99.90;;;;;;4972857;28;20026;-77
2022/04/21 01:33:13;;;;;;;6.45;1.38;;;9.20;99.90;;;;;;4974178;28;20011;-77
2022/04/21 01:35:38;;;;;;;3.08;1.60;;;9.30;99.90;;;;;;4973753;28;20019;-77
2022/04/21 01:43:33;;;;;;;2.22;1.20;;;9.40;99.90;;;;;;4973696;28;20038;-77
2022/04/21 01:45:59;;;;;;;5.93;1.70;;;9.40;99.90;;;;;;4973496;28;20027;-77
2022/04/21 01:48:25;;;;;;;5.45;1.58;;;9.40;99.90;;;;;;4973598;28;20038;-77
2022/04/21 01:50:51;;;;;;;4.03;1.95;;;9.30;99.90;;;;;;4976230;28;20382;-77
2022/04/21 01:53:17;;;;;;;2.53;1.17;;;9.30;99.90;;;;;;4977064;28;20025;-77
2022/04/21 01:55:42;;;;;;;5.18;1.30;;;9.30;99.90;;;;;;4977292;28;20026;-77
2022/04/21 01:58:08;;;;;;;2.40;1.38;;;9.30;99.90;;;;;;4977217;28;20023;-77
2022/04/21 02:00:34;;;;;;;3.30;1.73;;;9.30;99.90;;;;;;4964151;28;20035;-77
2022/04/21 02:03:00;;;;;;;5.55;1.60;;;9.30;99.90;;;;;;4957802;28;20031;-77
2022/04/21 02:05:26;;;;;;;3.10;1.30;;;9.30;99.90;;;;;;4956237;28;20047;-77
2022/04/21 02:07:52;;;;;;;2.60;1.38;;;9.40;99.90;;;;;;4957711;29;20121;-77
2022/04/21 02:10:19;;;;;;;6.32;1.80;;;9.30;99.90;;;;;;4965324;28;20068;-77
2022/04/21 02:12:46;;;;;;;5.50;1.60;;;9.30;99.90;;;;;;4974746;28;20022;-77
2022/04/21 02:15:12;;;;;;;4.35;1.67;;;9.30;99.90;;;;;;4977041;28;20061;-77
2022/04/21 02:17:39;;;;;;;3.85;1.40;;;9.30;99.90;;;;;;4977025;28;20027;-78
2022/04/21 02:20:09;;;;;;;4.43;1.55;;;9.30;99.90;;;;;;4976534;28;20027;-77
2022/04/21 02:22:35;;;;;;;3.05;1.42;;;9.30;99.90;;;;;;4976713;28;20387;-78
2022/04/21 02:25:09;;;;;;;3.95;1.60;;;9.20;99.90;;;;;;4975932;28;20035;-77
2022/04/21 02:27:37;;;;;;;2.38;1.25;;;9.30;99.90;;;;;;4975514;28;20573;-77
2022/04/21 02:30:04;;;;;;;4.05;1.50;;;9.20;99.90;;;;;;4976714;28;20363;-77
2022/04/21 02:32:30;;;;;;;1.75;1.15;;;9.20;99.90;;;;;;4976695;28;20027;-76
2022/04/21 02:34:56;;;;;;;3.83;1.70;;;9.30;99.90;;;;;;4976328;28;20089;-77
2022/04/21 02:37:22;;;;;;;3.25;1.17;;;9.30;99.90;;;;;;4976773;28;20030;-76
2022/04/21 02:39:49;;;;;;;5.15;1.27;;;9.30;99.90;;;;;;4957881;28;20031;-77
2022/04/21 02:42:15;;;;;;;1.75;1.17;;;9.30;99.90;;;;;;4969667;28;20033;-77
2022/04/21 02:44:41;;;;;;;3.15;1.50;;;9.30;99.90;;;;;;4976274;28;20102;-77
2022/04/21 02:47:08;;;;;;;5.10;1.60;;;9.30;99.90;;;;;;4976573;28;20103;-77
2022/04/21 02:49:37;;;;;;;4.78;1.50;;;9.40;99.90;;;;;;4975994;28;20497;-77
2022/04/21 02:52:09;;;;;;;2.85;1.20;;;9.30;99.90;;;;;;4976304;28;20099;-77
2022/04/21 02:57:20;;;;;;;3.85;1.27;;;9.30;99.90;;;;;;4960206;28;20038;-77
2022/04/21 02:59:50;;;;;;;2.85;1.50;;;9.30;99.90;;;;;;4956717;28;20031;-77
2022/04/21 03:02:16;;;;;;;4.60;1.30;;;9.30;99.90;;;;;;4955745;28;20023;-77
2022/04/21 03:04:42;;;;;;;5.38;1.55;;;9.30;99.90;;;;;;4956531;28;20035;-77
2022/04/21 03:07:07;;;;;;;6.35;1.42;;;9.30;99.90;;;;;;4956607;29;20023;-77
2022/04/21 03:09:33;;;;;;;5.35;1.40;;;9.30;99.90;;;;;;4960197;28;20171;-77
2022/04/21 03:12:03;;;;;;;2.67;1.40;;;9.20;99.90;;;;;;4956533;28;20023;-77
2022/04/21 03:14:29;;;;;;;2.67;1.40;;;9.30;99.90;;;;;;4956635;29;20102;-77
2022/04/21 03:16:55;;;;;;;2.67;1.30;;;9.30;99.90;;;;;;4956386;28;20475;-77
2022/04/21 03:19:21;;;;;;;7.20;1.77;;;9.30;99.90;;;;;;4956172;28;20027;-77
2022/04/21 03:24:31;;;;;;;2.88;1.15;;;9.30;99.90;;;;;;4965806;28;20050;-77
2022/04/21 03:26:57;;;;;;;3.33;1.20;;;9.30;99.90;;;;;;4975624;28;20023;-77
2022/04/21 03:29:23;;;;;;;1.55;1.13;;;9.30;99.90;;;;;;4975606;28;20026;-76
2022/04/21 03:31:49;;;;;;;3.35;1.38;;;9.20;99.90;;;;;;4975513;28;20022;-76
2022/04/21 03:34:16;;;;;;;6.30;1.17;;;9.30;99.90;;;;;;4975263;28;20102;-76
2022/04/21 03:36:49;;;;;;;3.63;1.30;;;9.30;99.90;;;;;;4975320;28;20093;-77
2022/04/21 03:39:20;;;;;;;2.15;1.45;;;9.20;99.90;;;;;;4960267;28;20039;-77
2022/04/21 03:41:46;;;;;;;3.65;1.50;;;9.30;99.90;;;;;;4956144;28;20025;-77
2022/04/21 03:44:11;;;;;;;2.97;1.63;;;9.20;99.90;;;;;;4964331;28;20446;-77
2022/04/21 03:46:38;;;;;;;2.25;1.48;;;9.20;99.90;;;;;;4975361;28;20106;-77
2022/04/21 03:49:07;;;;;;;7.03;1.83;;;9.30;99.90;;;;;;4974796;28;20038;-77
2022/04/21 03:51:34;;;;;;;2.38;1.45;;;9.20;99.90;;;;;;4975336;28;20022;-77
2022/04/21 03:54:00;;;;;;;2.97;1.50;;;9.30;99.90;;;;;;4974952;28;20045;-77
2022/04/21 03:56:29;;;;;;;1.92;1.40;;;9.30;99.90;;;;;;4975528;28;20019;-77
2022/04/21 03:58:56;;;;;;;3.92;1.63;;;9.20;99.90;;;;;;4973295;28;20093;-77
2022/04/21 04:01:22;;;;;;;3.40;1.60;;;9.20;99.90;;;;;;4975007;28;20019;-76
2022/04/21 04:03:48;;;;;;;4.20;1.85;;;9.30;99.90;;;;;;4974519;28;20058;-76
2022/04/21 04:11:42;;;;;;;4.80;1.80;;;9.30;99.90;;;;;;4973895;28;20414;-76
2022/04/21 04:14:08;;;;;;;2.20;1.58;;;9.30;99.90;;;;;;4974881;28;20097;-76
2022/04/21 04:16:35;;;;;;;3.33;1.90;;;9.30;99.90;;;;;;4972958;28;20031;-77
2022/04/21 04:19:03;;;;;;;3.13;1.92;;;9.20;99.90;;;;;;4974632;28;20429;-77
2022/04/21 04:21:30;;;;;;;5.10;2.40;;;9.20;99.90;;;;;;4974700;28;20038;-77
2022/04/21 04:23:57;;;;;;;5.07;2.15;;;9.30;99.90;;;;;;4974720;28;20033;-77
2022/04/21 04:26:23;;;;;;;2.45;1.70;;;9.30;99.90;;;;;;4973920;28;20410;-76
2022/04/21 04:28:49;;;;;;;5.63;2.92;;;9.20;99.90;;;;;;4974061;28;20030;-75
2022/04/21 04:31:15;;;;;;;2.92;1.73;;;9.30;99.90;;;;;;4973593;28;20108;-76
2022/04/21 04:33:41;;;;;;;6.13;2.33;;;9.30;99.90;;;;;;4993358;28;20023;-76
2022/04/21 04:36:09;;;;;;;3.42;2.25;;;9.30;99.90;;;;;;4993838;28;20026;-76
2022/04/21 04:38:35;;;;;;;4.65;2.13;;;9.30;99.90;;;;;;4973480;28;20027;-76
2022/04/21 04:42:16;;;;;;;6.38;2.63;;;9.30;99.90;;;;;;4973953;28;20492;-76
2022/04/21 04:43:46;;;;;;;4.35;2.38;;;9.30;99.90;;;;;;4973969;28;20027;-76
2022/04/21 04:48:56;;;;;;;3.72;2.55;;;9.20;99.90;;;;;;4973803;28;20041;-77
2022/04/21 04:51:22;;;;;;;3.53;2.45;;;9.20;99.90;;;;;;4973285;28;20105;-76
2022/04/21 04:53:48;;;;;;;3.60;2.42;;;9.20;99.90;;;;;;4973241;28;20026;-75
2022/04/21 04:56:14;;;;;;;4.20;2.60;;;9.20;99.90;;;;;;4973312;28;20065;-76
2022/04/21 04:58:40;;;;;;;4.03;2.92;;;9.30;99.90;;;;;;4973490;28;20029;-79
2022/04/21 05:01:06;;;;;;;4.57;3.17;;;9.30;99.90;;;;;;4972709;28;20030;-76
2022/04/21 05:03:32;;;;;;;6.72;3.25;;;9.30;99.90;;;;;;4973667;28;20070;-77
2022/04/21 05:05:58;;;;;;;5.80;2.85;;;9.30;99.90;;;;;;4973194;28;20031;-76
2022/04/21 05:08:23;;;;;;;5.30;2.78;;;9.20;99.90;;;;;;4973097;28;20427;-78
2022/04/21 05:10:53;;;;;;;3.50;2.60;;;9.30;99.90;;;;;;4972816;28;20565;-77
2022/04/21 05:13:18;;;;;;;4.90;2.85;;;9.40;99.90;;;;;;4970750;28;20175;-77
2022/04/21 05:15:44;;;;;;;3.88;2.50;;;9.40;99.90;;;;;;4964131;28;20026;-77
2022/04/21 05:18:10;;;;;;;3.83;2.20;;;9.40;99.90;;;;;;4977010;28;20029;-78
2022/04/21 15:06:45;;;;;;;3.88;2.30;;;11.80;99.90;;;;;;5573554;23;20073;-78
2022/04/21 15:09:11;;;;;;;9.25;2.95;;;11.80;99.90;;;;;;4994443;28;20061;-76
2022/04/21 15:11:44;;;;;;;6.72;3.47;;;11.80;99.90;;;;;;4995166;28;20034;-76
2022/04/21 15:14:09;;;;;;;6.32;3.40;;;11.80;99.90;;;;;;4995227;28;20085;-80
2022/04/21 15:16:35;;;;;;;6.13;3.13;;;11.80;99.90;;;;;;4993459;28;20478;-79
2022/04/21 15:19:02;;;;;;;5.35;3.60;;;11.90;99.90;;;;;;4994938;28;20112;-80
2022/04/21 15:21:28;;;;;;;5.78;3.92;;;11.90;99.90;;;;;;4995219;28;20022;-79
2022/04/21 15:23:54;;;;;;;5.68;4.07;;;11.80;99.90;;;;;;4994339;28;20029;-80
2022/04/21 15:26:19;;;;;;;8.20;4.47;;;11.80;99.90;;;;;;4994768;28;20470;-79
2022/04/21 15:28:49;;;;;;;9.18;4.22;;;11.90;99.90;;;;;;4995061;28;20469;-79
2022/04/21 15:31:17;;;;;;;7.18;4.82;;;11.90;99.90;;;;;;4994931;28;20106;-79
2022/04/21 15:33:43;;;;;;;9.30;5.63;;;11.90;99.90;;;;;;4994199;28;20018;-80
2022/04/21 15:36:10;;;;;;;11.70;4.93;;;12.00;99.90;;;;;;4993423;28;20097;-79
2022/04/21 15:38:36;;;;;;;7.25;5.18;;;12.00;99.90;;;;;;4994543;28;20076;-80
2022/04/21 15:41:01;;;;;;;5.78;4.80;;;12.00;99.90;;;;;;4993000;28;20030;-79
2022/04/21 15:43:28;;;;;;;8.45;6.15;;;12.00;99.90;;;;;;4994552;28;20042;-79
2022/04/21 15:45:54;;;;;;;8.95;6.18;;;12.00;99.90;;;;;;4994304;28;20038;-79
2022/04/21 15:48:20;;;;;;;9.27;6.40;;;12.10;99.90;;;;;;4994268;28;20092;-79
2022/04/21 15:50:46;;;;;;;9.02;5.95;;;12.20;99.90;;;;;;4994120;28;20034;-79
2022/04/21 15:58:48;;;;;;;10.63;5.00;;;12.40;99.90;;;;;;4993938;28;20559;-79
2022/04/21 16:01:25;;;;;;;6.35;4.97;;;12.50;99.90;;;;;;4992951;28;20030;-79
2022/04/21 16:03:51;;;;;;;6.43;4.25;;;12.40;99.90;;;;;;5021912;28;20394;-79
2022/04/21 16:06:19;;;;;;;10.10;3.83;;;12.50;99.90;;;;;;4988358;28;20047;-79
2022/04/21 16:08:46;;;;;;;5.22;3.83;;;12.50;99.90;;;;;;4973775;28;20023;-79
2022/04/21 16:11:12;;;;;;;4.80;3.35;;;12.50;99.90;;;;;;4974615;28;20474;-81
2022/04/21 16:13:38;;;;;;;8.23;3.92;;;12.60;99.90;;;;;;4974731;28;20023;-79
2022/04/21 16:16:04;;;;;;;5.68;3.53;;;12.70;99.90;;;;;;4974492;28;20046;-80
2022/04/21 16:18:30;;;;;;;4.90;3.53;;;12.60;99.90;;;;;;4989840;28;20069;-80
2022/04/21 16:20:56;;;;;;;12.40;4.15;;;12.70;99.90;;;;;;4972114;28;20498;-76
2022/04/21 16:23:22;;;;;;;15.75;5.50;;;12.80;99.90;;;;;;4972612;28;20034;-75
2022/04/21 16:25:48;;;;;;;7.28;4.38;;;12.80;99.90;;;;;;4972864;28;20089;-77
2022/04/21 16:28:14;;;;;;;7.28;3.97;;;12.90;99.90;;;;;;4976375;28;20035;-79
2022/04/21 16:30:39;;;;;;;7.80;4.07;;;13.00;99.90;;;;;;4974293;28;20034;-78
2022/04/21 16:33:06;;;;;;;4.90;3.35;;;13.00;99.90;;;;;;4974055;28;20069;-78
2022/04/21 16:35:31;;;;;;;6.53;3.33;;;13.00;99.90;;;;;;4973740;28;20026;-77
2022/04/21 16:37:57;;;;;;;7.40;3.63;;;12.90;99.90;;;;;;4970996;28;20560;-78
2022/04/21 16:40:23;;;;;;;5.85;3.28;;;12.90;99.90;;;;;;4971425;28;20118;-78
2022/04/21 16:42:50;;;;;;;6.53;3.50;;;13.00;99.90;;;;;;4971355;28;20030;-77
2022/04/21 16:45:16;;;;;;;8.85;3.95;;;13.00;99.90;;;;;;4971777;28;20019;-77
2022/04/21 16:47:42;;;;;;;5.55;3.88;;;13.10;99.90;;;;;;4973028;28;20026;-78
2022/04/21 16:50:08;;;;;;;6.88;3.35;;;13.10;99.90;;;;;;4972183;28;20404;-78
2022/04/21 16:52:34;;;;;;;7.25;3.80;;;13.10;99.90;;;;;;4972904;28;20022;-78
2022/04/21 16:55:00;;;;;;;6.50;3.70;;;13.00;99.90;;;;;;4973438;28;20022;-78
2022/04/21 16:57:25;;;;;;;5.32;3.47;;;12.80;99.90;;;;;;4972989;28;20498;-79
2022/04/21 16:59:51;;;;;;;8.23;3.50;;;12.80;99.90;;;;;;4973224;28;20042;-78
2022/04/21 17:05:03;;;;;;;6.20;2.83;;;12.80;99.90;;;;;;4972425;28;20159;-79
2022/04/21 17:07:30;;;;;;;6.18;3.38;;;12.80;99.90;;;;;;4972038;28;20146;-81
2022/04/21 17:09:56;;;;;;;5.65;3.53;;;12.80;99.90;;;;;;4972926;28;20031;-80
2022/04/21 17:12:23;;;;;;;4.93;3.22;;;12.80;99.90;;;;;;4972990;28;20466;-77
2022/04/21 17:14:48;;;;;;;6.15;3.25;;;12.70;99.90;;;;;;4973495;28;20022;-77
2022/04/21 17:17:14;;;;;;;4.97;3.40;;;12.70;99.90;;;;;;4977947;28;20053;-79
2022/04/21 17:19:40;;;;;;;6.45;3.20;;;12.60;99.90;;;;;;4972928;28;20048;-78
2022/04/21 17:22:06;;;;;;;4.10;3.30;;;12.50;99.90;;;;;;4976202;28;20025;-78
2022/04/21 17:24:32;;;;;;;6.28;3.63;;;12.50;99.90;;;;;;4977308;28;20031;-78
2022/04/21 17:26:58;;;;;;;5.65;3.67;;;12.50;99.90;;;;;;4977020;28;20034;-76
2022/04/21 17:29:25;;;;;;;6.13;3.65;;;12.60;99.90;;;;;;4988637;28;20033;-77
2022/04/21 17:31:52;;;;;;;4.78;3.25;;;12.50;99.90;;;;;;4977173;28;20030;-76
2022/04/21 17:34:17;;;;;;;5.00;3.63;;;12.60;99.90;;;;;;4974144;28;20090;-77
2022/04/21 17:36:43;;;;;;;9.00;3.53;;;12.60;99.90;;;;;;4976340;28;20023;-77
2022/04/21 17:39:09;;;;;;;5.68;3.53;;;12.50;99.90;;;;;;4976239;28;20042;-77
2022/04/21 17:41:36;;;;;;;6.70;4.30;;;12.50;99.90;;;;;;4978468;28;20030;-76
2022/04/21 17:44:01;;;;;;;13.48;4.10;;;12.50;99.90;;;;;;4976824;28;20027;-76
2022/04/21 17:46:27;;;;;;;8.55;3.92;;;12.40;99.90;;;;;;4976552;28;20474;-77
2022/04/21 17:48:53;;;;;;;6.85;3.70;;;12.40;99.90;;;;;;4976385;28;20462;-76
2022/04/21 17:51:18;;;;;;;5.55;3.53;;;12.40;99.90;;;;;;4976634;28;20015;-78
2022/04/21 17:53:44;;;;;;;6.15;3.67;;;12.30;99.90;;;;;;4974825;28;20093;-77
2022/04/21 17:56:10;;;;;;;6.00;4.00;;;12.30;99.90;;;;;;4976615;28;20023;-78
2022/04/21 17:58:35;;;;;;;5.95;3.83;;;12.30;99.90;;;;;;4976396;28;20062;-77
2022/04/21 18:01:02;;;;;;;7.25;4.35;;;12.30;99.90;;;;;;4976443;28;20506;-77
2022/04/21 18:03:29;;;;;;;5.50;3.90;;;12.20;99.90;;;;;;4976164;28;20110;-78
2022/04/21 18:05:54;;;;;;;8.10;3.60;;;12.30;99.90;;;;;;4975750;28;20479;-77
2022/04/21 18:08:20;;;;;;;11.05;3.78;;;12.30;99.90;;;;;;4979522;28;20049;-77
2022/04/21 18:10:46;;;;;;;7.93;3.58;;;12.30;99.90;;;;;;4979500;28;20106;-78
2022/04/21 18:13:12;;;;;;;5.40;3.58;;;12.20;99.90;;;;;;4975917;28;20090;-78
2022/04/21 18:15:37;;;;;;;5.82;4.03;;;12.20;99.90;;;;;;4975250;28;20045;-77
2022/04/21 18:18:03;;;;;;;6.82;4.50;;;12.20;99.90;;;;;;4975738;28;20151;-80
2022/04/21 18:20:29;;;;;;;6.95;4.57;;;12.20;99.90;;;;;;4979058;28;20022;-78
2022/04/21 18:22:55;;;;;;;7.03;4.15;;;12.20;99.90;;;;;;4984283;28;20033;-80
2022/04/21 18:25:20;;;;;;;5.57;4.13;;;12.20;99.90;;;;;;4974607;28;20050;-79
2022/04/21 18:27:46;;;;;;;6.82;4.75;;;12.20;99.90;;;;;;4975783;28;20118;-78
2022/04/21 18:30:12;;;;;;;7.47;4.43;;;12.20;99.90;;;;;;4975608;28;20030;-82
2022/04/21 18:32:40;;;;;;;5.40;3.95;;;12.10;99.90;;;;;;4974176;28;20529;-77
2022/04/21 18:35:09;;;;;;;10.65;4.68;;;12.10;99.90;;;;;;4976072;28;20038;-77
2022/04/21 18:37:36;;;;;;;6.28;4.63;;;12.10;99.90;;;;;;4975914;28;20030;-77
2022/04/21 18:40:02;;;;;;;6.57;4.70;;;12.00;99.90;;;;;;4975538;28;20023;-77
2022/04/21 18:42:28;;;;;;;8.25;4.95;;;12.00;99.90;;;;;;4987946;28;20333;-77
2022/04/21 18:44:55;;;;;;;9.95;5.25;;;11.90;99.90;;;;;;4975447;28;20088;-77
2022/04/21 18:47:21;;;;;;;9.32;5.70;;;12.00;99.90;;;;;;4975129;28;20031;-78
2022/04/21 18:49:47;;;;;;;7.40;5.80;;;12.00;99.90;;;;;;4974704;28;20504;-77
2022/04/21 18:52:14;;;;;;;12.88;6.53;;;12.00;99.90;;;;;;4975437;28;20027;-78
2022/04/21 18:54:40;;;;;;;8.30;5.97;;;11.90;99.90;;;;;;4977519;28;20023;-78
2022/04/21 18:57:06;;;;;;;9.13;5.88;;;12.00;99.90;;;;;;4975415;28;20023;-77
2022/04/21 18:59:31;;;;;;;10.82;6.40;;;11.90;99.90;;;;;;4975490;28;20034;-78
2022/04/21 19:01:57;;;;;;;15.50;6.88;;;11.90;99.90;;;;;;4974486;28;20033;-78
2022/04/21 19:04:23;;;;;;;9.63;6.13;;;11.90;99.90;;;;;;4974245;28;20386;-78
2022/04/21 19:06:49;;;;;;;10.15;6.60;;;11.90;99.90;;;;;;4973312;28;20050;-79
2022/04/21 19:12:01;;;;;;;8.82;5.80;;;11.90;99.90;;;;;;4975086;28;20085;-78
2022/04/21 19:14:28;;;;;;;11.50;6.53;;;11.90;99.90;;;;;;4975556;28;20026;-78
2022/04/21 19:16:53;;;;;;;10.75;5.78;;;11.90;99.90;;;;;;4974400;28;20410;-78
2022/04/21 19:19:19;;;;;;;8.15;6.10;;;11.90;99.90;;;;;;4975196;28;20023;-78
2022/04/21 19:21:45;;;;;;;8.82;5.85;;;11.90;99.90;;;;;;4974020;28;20140;-78
2022/04/21 19:24:12;;;;;;;10.52;6.65;;;11.90;99.90;;;;;;4974851;28;20018;-78
2022/04/21 19:26:41;;;;;;;10.27;6.40;;;11.90;99.90;;;;;;4975056;28;20403;-79
2022/04/21 19:29:10;;;;;;;13.60;6.50;;;11.90;99.90;;;;;;4973229;28;20034;-79
2022/04/21 19:31:38;;;;;;;11.18;6.85;;;11.90;99.90;;;;;;4974557;28;20065;-78
2022/04/21 19:34:09;;;;;;;11.18;7.40;;;11.80;99.90;;;;;;4974695;28;20552;-78
2022/04/21 19:36:35;;;;;;;11.25;6.85;;;11.90;99.90;;;;;;4975248;28;20049;-78
2022/04/21 19:39:03;;;;;;;14.95;6.97;;;11.80;99.90;;;;;;4974622;28;20517;-78
2022/04/21 19:41:29;;;;;;;12.95;7.13;;;11.90;99.90;;;;;;4973853;28;20035;-78
2022/04/21 19:43:55;;;;;;;12.13;7.35;;;11.80;99.90;;;;;;4973685;28;20041;-78
2022/04/21 19:46:21;;;;;;;10.93;6.93;;;11.90;99.90;;;;;;4973016;28;20042;-78
2022/04/21 19:48:47;;;;;;;12.02;7.20;;;11.80;99.90;;;;;;4974841;28;20441;-78
2022/04/21 19:51:13;;;;;;;9.48;6.70;;;11.80;99.90;;;;;;4974259;28;20035;-79
2022/04/21 19:53:39;;;;;;;9.30;7.10;;;11.90;99.90;;;;;;4973514;28;20403;-79
2022/04/21 19:56:06;;;;;;;10.00;7.03;;;11.90;99.90;;;;;;4974387;28;20027;-79
2022/04/21 19:58:33;;;;;;;10.90;7.95;;;11.80;99.90;;;;;;4974906;28;20517;-78
2022/04/21 20:01:00;;;;;;;13.32;7.22;;;11.80;99.90;;;;;;4973238;28;20038;-78
2022/04/21 20:03:27;;;;;;;12.35;7.38;;;11.80;99.90;;;;;;4974714;28;20030;-78
2022/04/21 20:11:28;;;;;;;14.60;8.95;;;11.80;99.90;;;;;;4974475;28;20081;-78
2022/04/21 20:13:55;;;;;;;21.05;8.82;;;11.70;99.90;;;;;;4974507;28;20020;-78
2022/04/21 20:16:21;;;;;;;13.02;8.27;;;11.80;99.90;;;;;;4973167;28;20027;-78
2022/04/21 20:22:14;;;;;;;11.57;7.68;;;11.70;99.90;;;;;;4974227;28;20026;-78
2022/04/21 20:27:07;;;;;;;16.73;7.32;;;11.70;99.90;;;;;;4974316;28;20038;-78
2022/04/21 20:29:33;;;;;;;10.13;7.53;;;11.70;99.90;;;;;;4972470;28;20406;-78
2022/04/21 20:31:59;;;;;;;16.17;7.95;;;11.70;99.90;;;;;;4973906;28;20018;-78
2022/04/21 20:34:26;;;;;;;11.35;7.50;;;11.70;99.90;;;;;;4973919;28;20022;-79
2022/04/21 20:36:52;;;;;;;9.80;7.40;;;11.70;99.90;;;;;;4974298;28;20478;-78
2022/04/21 20:39:18;;;;;;;11.63;7.22;;;11.70;99.90;;;;;;4973925;28;20549;-78
2022/04/21 20:41:44;;;;;;;10.77;7.22;;;11.60;99.90;;;;;;4989879;28;20030;-79
2022/04/21 20:44:10;;;;;;;13.52;7.55;;;11.60;99.90;;;;;;4993004;28;20038;-79
2022/04/21 20:46:36;;;;;;;12.50;7.30;;;11.60;99.90;;;;;;4989104;28;20529;-79
2022/04/21 20:49:01;;;;;;;11.68;6.72;;;11.60;99.90;;;;;;4974112;28;20019;-78
2022/04/21 20:51:28;;;;;;;11.20;7.03;;;11.60;99.90;;;;;;4974050;28;20130;-78
2022/04/21 20:53:54;;;;;;;8.75;6.03;;;11.50;99.90;;;;;;4973853;28;20490;-78
2022/04/21 20:56:20;;;;;;;10.32;6.43;;;11.60;99.90;;;;;;4973555;28;20034;-78
2022/04/21 20:58:46;;;;;;;10.55;6.82;;;11.60;99.90;;;;;;4973291;28;20027;-79
2022/04/21 21:01:12;;;;;;;9.05;5.88;;;11.60;99.90;;;;;;4973573;28;20042;-78
2022/04/21 21:03:38;;;;;;;13.35;6.78;;;11.50;99.90;;;;;;4973844;28;20063;-78
2022/04/21 21:06:03;;;;;;;8.13;5.90;;;11.50;99.90;;;;;;4972297;28;20070;-78
2022/04/21 21:08:29;;;;;;;9.48;6.00;;;11.50;99.90;;;;;;4985484;28;20026;-79
2022/04/21 21:10:56;;;;;;;10.88;6.28;;;11.50;99.90;;;;;;4992454;28;20038;-78
2022/04/21 21:13:22;;;;;;;11.07;6.00;;;11.50;99.90;;;;;;4992306;28;20018;-78
2022/04/21 21:15:48;;;;;;;10.60;5.70;;;11.50;99.90;;;;;;4991129;28;20076;-78
2022/04/21 21:18:14;;;;;;;10.32;6.05;;;11.60;99.90;;;;;;4973903;28;20019;-78
2022/04/21 21:20:40;;;;;;;9.65;5.78;;;11.50;99.90;;;;;;4973951;28;20057;-78
2022/04/21 21:23:06;;;;;;;8.57;5.82;;;11.50;99.90;;;;;;4973808;28;20030;-78
2022/04/21 21:25:32;;;;;;;9.38;5.72;;;11.50;99.90;;;;;;4972715;28;20027;-78
2022/04/21 21:27:57;;;;;;;9.50;5.47;;;11.50;99.90;;;;;;4974136;28;20098;-78
2022/04/21 21:30:23;;;;;;;8.82;5.63;;;11.50;99.90;;;;;;4973422;28;20042;-79
2022/04/21 21:32:50;;;;;;;7.93;5.60;;;11.50;99.90;;;;;;4973777;28;20051;-78
2022/04/21 21:35:18;;;;;;;7.80;5.55;;;11.40;99.90;;;;;;4973550;28;20110;-78
2022/04/21 21:37:44;;;;;;;10.02;5.50;;;11.40;99.90;;;;;;4973367;28;20023;-78
2022/04/21 21:40:11;;;;;;;10.25;5.28;;;11.50;99.90;;;;;;4973268;28;20038;-78
2022/04/21 21:42:39;;;;;;;12.13;5.40;;;11.50;99.90;;;;;;4973020;28;20050;-78
2022/04/21 21:45:09;;;;;;;7.18;5.00;;;11.50;99.90;;;;;;4973796;28;20061;-78
2022/04/21 21:47:35;;;;;;;8.95;5.55;;;11.50;99.90;;;;;;4973136;28;20418;-79
2022/04/21 21:52:54;;;;;;;13.88;5.53;;;11.50;99.90;;;;;;4973328;28;20033;-79
2022/04/21 21:55:25;;;;;;;10.60;6.38;;;11.40;99.90;;;;;;4958240;28;20030;-79
2022/04/21 21:57:51;;;;;;;9.05;5.70;;;11.40;99.90;;;;;;4973231;28;20438;-79
2022/04/21 22:00:32;;;;;;;12.00;4.97;;;11.40;99.90;;;;;;4972939;28;20027;-78
2022/04/21 22:02:57;;;;;;;9.50;5.15;;;11.40;99.90;;;;;;4973217;28;20130;-78
2022/04/21 22:05:23;;;;;;;7.40;4.93;;;11.40;99.90;;;;;;4972758;28;20102;-78
2022/04/21 22:07:49;;;;;;;5.80;4.60;;;11.30;99.90;;;;;;4981897;28;20047;-78
2022/04/21 22:10:15;;;;;;;7.80;4.50;;;11.40;99.90;;;;;;4991149;28;20038;-79
2022/04/21 22:12:42;;;;;;;5.25;4.13;;;11.40;99.90;;;;;;4976370;28;20041;-79
2022/04/21 22:15:08;;;;;;;7.53;5.13;;;11.30;99.90;;;;;;4975496;28;20036;-79
2022/04/21 22:17:34;;;;;;;8.15;4.45;;;11.30;99.90;;;;;;4992752;28;20504;-79
2022/04/21 22:20:01;;;;;;;7.82;3.92;;;11.30;99.90;;;;;;4996496;28;20105;-79
2022/04/21 22:22:26;;;;;;;6.03;4.18;;;11.30;99.90;;;;;;4982165;28;20023;-79
2022/04/21 22:24:52;;;;;;;7.65;4.30;;;11.30;99.90;;;;;;4976148;28;20041;-79
2022/04/21 22:27:18;;;;;;;6.05;3.70;;;11.30;99.90;;;;;;4976596;28;20081;-79
2022/04/21 22:29:44;;;;;;;6.15;3.92;;;11.30;99.90;;;;;;4976704;28;20023;-78
2022/04/21 22:32:13;;;;;;;6.28;4.47;;;11.30;99.90;;;;;;4976645;28;20414;-78
2022/04/21 22:34:39;;;;;;;7.47;4.07;;;11.20;99.90;;;;;;4975896;28;20038;-78
2022/04/21 22:37:05;;;;;;;9.43;4.05;;;11.20;99.90;;;;;;4974934;28;20027;-78
2022/04/21 22:39:31;;;;;;;10.27;4.32;;;11.30;99.90;;;;;;4975959;28;20062;-79
2022/04/21 22:41:57;;;;;;;5.85;4.70;;;11.20;99.90;;;;;;4976202;28;20061;-79
2022/04/21 22:44:23;;;;;;;5.88;4.78;;;11.20;99.90;;;;;;4976146;28;20041;-79
2022/04/21 22:46:49;;;;;;;8.43;4.15;;;11.20;99.90;;;;;;4974894;28;20031;-79
2022/04/21 22:49:16;;;;;;;5.72;4.07;;;11.20;99.90;;;;;;4975666;28;20379;-79
2022/04/21 22:51:42;;;;;;;6.95;4.25;;;11.20;99.90;;;;;;4975745;28;20032;-79
2022/04/21 22:54:08;;;;;;;5.78;4.63;;;11.10;99.90;;;;;;4974559;28;20546;-79
2022/04/21 22:56:33;;;;;;;37.38;5.30;;;11.20;99.90;;;;;;4975885;28;20058;-78
2022/04/21 22:59:02;;;;;;;5.07;3.90;;;11.20;99.90;;;;;;4976080;28;20494;-79
2022/04/21 23:01:28;;;;;;;4.88;4.00;;;11.20;99.90;;;;;;4975800;28;20029;-78
2022/04/21 23:03:54;;;;;;;5.97;4.25;;;11.10;99.90;;;;;;4980622;28;20038;-79
2022/04/21 23:06:19;;;;;;;5.05;3.90;;;11.10;99.90;;;;;;4994358;28;20042;-79
2022/04/21 23:14:17;;;;;;;7.18;4.70;;;11.10;99.90;;;;;;4995381;28;20065;-78
2022/04/21 23:16:43;;;;;;;13.10;4.88;;;11.10;99.90;;;;;;4994854;28;20026;-79
2022/04/21 23:19:08;;;;;;;8.57;5.05;;;11.10;99.90;;;;;;4994168;28;20026;-78
2022/04/21 23:21:34;;;;;;;6.20;4.70;;;11.10;99.90;;;;;;4994581;28;20129;-78
2022/04/21 23:24:00;;;;;;;7.43;4.60;;;11.10;99.90;;;;;;4994804;28;20031;-78
2022/04/21 23:26:25;;;;;;;9.05;5.13;;;11.10;99.90;;;;;;4993597;28;20113;-79